Time;durP1;ratioP1;P1;durP2;ratioP2;P2;SDS_P1;SDS_P2;PMS_P1;PMS_P2;Temp;Humidity;BMP_temperature;BMP_pressure;BME280_temperature;BME280_humidity;BME280_pressure;Samples;Min_cycle;Max_cycle;Signal;HPM_P1;HPM_P2
2023/05/03 00:00:59;;;;;;;5.82;3.15;;;;;;;5.74;100.00;102705.69;5268119;28;20029;-66
2023/05/03 00:03:31;;;;;;;4.95;3.00;;;;;;;5.69;100.00;102709.31;5267413;28;20053;-67
2023/05/03 00:06:13;;;;;;;7.32;3.75;;;;;;;5.69;100.00;102704.03;5263754;28;20091;-66
2023/05/03 00:08:47;;;;;;;8.75;3.65;;;;;;;5.68;100.00;102707.56;5268449;28;20043;-66
2023/05/03 00:11:20;;;;;;;;;;;;;;;5.74;100.00;102708.31;5269473;28;20024;-67
2023/05/03 00:13:51;;;;;;;6.40;3.10;;;;;;;5.61;100.00;102708.63;5268320;28;20006;-66
2023/05/03 00:16:22;;;;;;;8.27;3.08;;;;;;;5.64;100.00;102713.84;5265134;28;20352;-66
2023/05/03 00:18:54;;;;;;;6.15;3.10;;;;;;;5.54;100.00;102709.69;5267549;28;20025;-66
2023/05/03 00:21:25;;;;;;;7.40;3.10;;;;;;;5.51;100.00;102709.78;5260949;28;20028;-66
2023/05/03 00:23:57;;;;;;;6.82;2.63;;;;;;;5.45;100.00;102708.16;5263432;28;20035;-66
2023/05/03 00:26:29;;;;;;;7.00;2.92;;;;;;;5.44;100.00;102709.03;5263142;28;20029;-66
2023/05/03 00:29:00;;;;;;;7.15;3.20;;;;;;;5.49;100.00;102708.94;5299225;28;20056;-66
2023/05/03 00:31:31;;;;;;;8.73;3.38;;;;;;;5.38;100.00;102717.13;5265796;28;20031;-66
2023/05/03 00:34:03;;;;;;;8.10;3.13;;;;;;;5.33;100.00;102710.22;5263302;28;20024;-66
2023/05/03 00:36:34;;;;;;;8.50;3.00;;;;;;;5.31;100.00;102707.59;5268359;28;20106;-66
2023/05/03 00:39:06;;;;;;;8.40;3.25;;;;;;;5.35;100.00;102711.94;5260381;28;20049;-66
2023/05/03 00:41:37;;;;;;;9.90;3.10;;;;;;;5.30;100.00;102709.38;5265811;28;20031;-66
2023/05/03 00:44:09;;;;;;;7.55;3.10;;;;;;;5.25;100.00;102713.94;5271341;28;20145;-65
2023/05/03 00:46:40;;;;;;;7.65;3.00;;;;;;;5.22;100.00;102714.00;5271653;28;20024;-66
2023/05/03 00:49:12;;;;;;;7.03;3.40;;;;;;;5.25;100.00;102713.06;5260449;28;20047;-66
2023/05/03 00:51:43;;;;;;;5.90;3.17;;;;;;;5.29;100.00;102712.97;5263510;28;20029;-67
2023/05/03 00:54:15;;;;;;;7.78;3.67;;;;;;;5.29;100.00;102712.06;5265651;28;20359;-66
2023/05/03 00:56:46;;;;;;;9.32;3.60;;;;;;;5.24;100.00;102704.25;5266091;28;20094;-67
2023/05/03 00:59:18;;;;;;;8.50;3.17;;;;;;;5.27;100.00;102709.47;5265006;28;20104;-66
2023/05/03 01:01:51;;;;;;;6.43;3.20;;;;;;;5.14;100.00;102699.19;5260110;28;20021;-66
2023/05/03 01:04:23;;;;;;;6.32;3.22;;;;;;;5.14;100.00;102697.44;5264174;28;20060;-66
2023/05/03 01:06:57;;;;;;;8.30;3.60;;;;;;;5.16;100.00;102700.03;5269694;28;20020;-65
2023/05/03 01:09:50;;;;;;;7.45;3.50;;;;;;;5.10;100.00;102699.28;5264454;28;20042;-66
2023/05/03 01:12:47;;;;;;;10.82;3.42;;;;;;;5.02;100.00;102698.59;5269554;28;20064;-66
2023/05/03 01:16:11;;;;;;;7.75;3.45;;;;;;;5.15;100.00;102703.59;5258129;28;20055;-66
2023/05/03 01:18:47;;;;;;;9.02;3.17;;;;;;;5.04;100.00;102710.03;5267641;28;20040;-66
2023/05/03 01:21:21;;;;;;;7.28;3.55;;;;;;;5.03;100.00;102710.06;5273258;28;20036;-67
2023/05/03 01:24:02;;;;;;;8.32;3.33;;;;;;;4.98;100.00;102714.56;5274098;28;20028;-67
2023/05/03 01:26:34;;;;;;;9.52;3.70;;;;;;;4.96;100.00;102709.31;5274725;28;20036;-67
2023/05/03 01:29:05;;;;;;;9.05;3.50;;;;;;;4.96;100.00;102713.75;5275057;28;20028;-67
2023/05/03 01:32:02;;;;;;;5.95;3.40;;;;;;;4.97;100.00;102720.78;5273237;28;20055;-67
2023/05/03 01:34:47;;;;;;;6.63;3.75;;;;;;;4.98;100.00;102717.22;5270258;28;20044;-67
2023/05/03 01:37:19;;;;;;;6.13;3.33;;;;;;;4.88;100.00;102716.56;5277075;28;20028;-67
2023/05/03 01:40:06;;;;;;;9.35;3.55;;;;;;;4.90;100.00;102720.91;5271238;28;20021;-67
2023/05/03 01:42:38;;;;;;;9.15;3.45;;;;;;;4.96;100.00;102721.69;5275744;28;20119;-67
2023/05/03 01:45:10;;;;;;;8.38;3.40;;;;;;;4.87;100.00;102715.69;5269507;28;20113;-67
2023/05/03 01:47:41;;;;;;;7.00;3.60;;;;;;;4.87;100.00;102721.00;5265410;28;20110;-67
2023/05/03 01:50:13;;;;;;;8.05;3.80;;;;;;;4.83;100.00;102718.44;5277913;28;20119;-67
2023/05/03 01:52:44;;;;;;;8.75;3.50;;;;;;;4.82;100.00;102714.06;5268521;28;20077;-66
2023/05/03 01:55:16;;;;;;;12.35;4.07;;;;;;;4.84;100.00;102721.03;5269432;28;20028;-66
2023/05/03 01:57:47;;;;;;;8.27;3.75;;;;;;;4.73;100.00;102712.47;5267239;28;20033;-67
2023/05/03 02:00:19;;;;;;;8.35;3.95;;;;;;;4.71;100.00;102714.28;5268934;28;20475;-67
2023/05/03 02:02:51;;;;;;;7.75;3.67;;;;;;;4.70;100.00;102716.06;5266430;28;20294;-67
2023/05/03 02:05:22;;;;;;;5.85;3.38;;;;;;;4.68;100.00;102717.88;5266444;28;20544;-67
2023/05/03 02:07:54;;;;;;;6.25;3.60;;;;;;;4.69;100.00;102726.66;5270542;28;20037;-67
2023/05/03 02:10:25;;;;;;;6.97;3.78;;;;;;;4.65;100.00;102719.72;5273697;28;20028;-67
2023/05/03 02:12:57;;;;;;;10.07;4.13;;;;;;;4.58;100.00;102718.97;5272499;28;20036;-66
2023/05/03 02:15:29;;;;;;;6.90;3.58;;;;;;;4.65;100.00;102717.94;5272323;28;20134;-67
2023/05/03 02:18:01;;;;;;;10.13;4.18;;;;;;;4.63;100.00;102716.22;5266949;28;20376;-66
2023/05/03 02:20:36;;;;;;;7.95;3.78;;;;;;;4.48;100.00;102706.84;5270181;28;20561;-67
2023/05/03 02:23:07;;;;;;;9.50;3.90;;;;;;;4.52;100.00;102711.16;5266636;28;20032;-66
2023/05/03 02:25:40;;;;;;;7.80;4.00;;;;;;;4.48;100.00;102702.44;5264958;28;20383;-67
2023/05/03 02:28:11;;;;;;;8.65;4.05;;;;;;;4.53;100.00;102702.34;5273105;28;20037;-66
2023/05/03 02:30:43;;;;;;;10.32;3.90;;;;;;;4.46;100.00;102700.72;5265632;28;20250;-67
2023/05/03 02:33:14;;;;;;;9.23;3.85;;;;;;;4.41;100.00;102695.56;5261309;28;20066;-66
2023/05/03 02:35:46;;;;;;;8.40;4.05;;;;;;;4.51;100.00;102691.78;5265570;28;20084;-66
2023/05/03 02:38:17;;;;;;;7.60;4.13;;;;;;;4.48;100.00;102686.56;5266534;28;20411;-66
2023/05/03 02:40:49;;;;;;;8.95;3.92;;;;;;;4.44;100.00;102679.59;5263270;28;20441;-66
2023/05/03 02:43:20;;;;;;;17.60;5.80;;;;;;;4.42;100.00;102678.78;5266678;28;20037;-67
2023/05/03 02:45:51;;;;;;;8.93;3.70;;;;;;;4.36;100.00;102675.41;5262670;28;20020;-67
2023/05/03 02:48:23;;;;;;;10.57;4.03;;;;;;;4.31;100.00;102675.47;5265153;28;20074;-66
2023/05/03 02:50:54;;;;;;;8.45;4.00;;;;;;;4.36;100.00;102665.69;5262021;28;20033;-67
2023/05/03 02:53:26;;;;;;;10.38;3.97;;;;;;;4.32;100.00;102664.88;5265606;28;20028;-67
2023/05/03 02:55:57;;;;;;;13.38;4.72;;;;;;;4.29;100.00;102658.78;5265505;28;20060;-67
2023/05/03 02:58:29;;;;;;;6.25;4.10;;;;;;;4.30;100.00;102652.63;5265938;28;20479;-67
2023/05/03 03:01:00;;;;;;;8.73;3.97;;;;;;;4.25;100.00;102657.97;5261866;28;20642;-67
2023/05/03 03:03:31;;;;;;;7.28;4.38;;;;;;;4.27;100.00;102660.59;5265706;28;20507;-66
2023/05/03 03:06:03;;;;;;;6.93;4.03;;;;;;;4.28;100.00;102667.63;5264816;28;20369;-67
2023/05/03 03:08:35;;;;;;;7.45;4.30;;;;;;;4.16;100.00;102667.88;5261527;28;20046;-67
2023/05/03 03:11:07;;;;;;;9.88;4.63;;;;;;;4.12;100.00;102680.25;5264912;28;20363;-67
2023/05/03 03:13:40;;;;;;;8.10;4.30;;;;;;;4.21;100.00;102684.50;5279340;28;20063;-67
2023/05/03 03:16:12;;;;;;;10.70;4.45;;;;;;;4.08;100.00;102675.94;5265461;28;20024;-67
2023/05/03 03:18:43;;;;;;;8.65;4.30;;;;;;;4.06;100.00;102678.63;5264409;28;20033;-67
2023/05/03 03:21:15;;;;;;;11.55;4.20;;;;;;;4.04;100.00;102674.28;5268937;28;20343;-67
2023/05/03 03:23:47;;;;;;;8.93;4.18;;;;;;;4.02;100.00;102670.78;5264662;28;20032;-67
2023/05/03 03:26:18;;;;;;;8.55;4.25;;;;;;;3.96;100.00;102677.06;5264244;28;20035;-67
2023/05/03 03:28:50;;;;;;;10.88;4.60;;;;;;;3.99;100.00;102686.69;5267706;28;20029;-67
2023/05/03 03:31:22;;;;;;;6.35;3.88;;;;;;;3.89;100.00;102699.19;5266722;28;20029;-67
2023/05/03 03:33:53;;;;;;;10.23;4.47;;;;;;;3.88;100.00;102685.13;5258963;28;20097;-67
2023/05/03 03:36:26;;;;;;;9.80;4.55;;;;;;;3.84;100.00;102690.50;5265443;28;20033;-67
2023/05/03 03:38:58;;;;;;;11.05;5.10;;;;;;;3.84;100.00;102677.31;5262309;28;20040;-67
2023/05/03 03:41:30;;;;;;;9.80;5.10;;;;;;;3.88;100.00;102679.00;5265694;28;20402;-67
2023/05/03 03:44:02;;;;;;;9.15;4.53;;;;;;;3.86;100.00;102675.50;5265126;28;20028;-67
2023/05/03 03:46:33;;;;;;;11.27;5.38;;;;;;;3.87;100.00;102677.22;5264594;28;20420;-67
2023/05/03 03:49:05;;;;;;;9.25;5.15;;;;;;;3.91;100.00;102676.28;5263694;28;20040;-67
2023/05/03 03:51:37;;;;;;;11.60;5.03;;;;;;;3.90;100.00;102674.53;5261952;28;20039;-66
2023/05/03 03:54:08;;;;;;;8.40;4.63;;;;;;;3.81;100.00;102666.78;5261796;28;20537;-67
2023/05/03 03:56:40;;;;;;;10.77;4.60;;;;;;;3.77;100.00;102670.41;5264425;28;20036;-67
2023/05/03 03:59:11;;;;;;;8.63;4.95;;;;;;;3.81;100.00;102672.06;5263811;28;20039;-67
2023/05/03 04:01:43;;;;;;;9.85;5.15;;;;;;;3.80;100.00;102691.47;5265866;28;20094;-66
2023/05/03 04:04:15;;;;;;;11.13;5.28;;;;;;;3.84;100.00;102690.50;5264577;28;20071;-66
2023/05/03 04:06:46;;;;;;;8.73;4.95;;;;;;;3.75;100.00;102688.03;5266241;28;20033;-67
2023/05/03 04:09:17;;;;;;;10.60;5.13;;;;;;;3.68;100.00;102685.50;5264617;28;20031;-67
2023/05/03 04:11:49;;;;;;;9.85;5.53;;;;;;;3.75;100.00;102691.53;5263573;28;20112;-66
2023/05/03 04:14:20;;;;;;;12.35;5.07;;;;;;;3.71;100.00;102693.34;5264738;28;20402;-67
2023/05/03 04:16:52;;;;;;;9.85;5.45;;;;;;;3.77;100.00;102696.78;5264329;28;20029;-66
2023/05/03 04:19:25;;;;;;;10.32;5.57;;;;;;;3.72;100.00;102694.22;5265292;28;20031;-66
2023/05/03 04:21:57;;;;;;;8.27;5.00;;;;;;;3.73;100.00;102691.56;5264828;28;20059;-66
2023/05/03 04:24:29;;;;;;;12.68;5.50;;;;;;;3.66;100.00;102695.22;5262329;28;20449;-67
2023/05/03 04:27:03;;;;;;;9.68;5.53;;;;;;;3.62;100.00;102693.50;5264683;28;20604;-66
2023/05/03 04:29:35;;;;;;;10.45;5.68;;;;;;;3.64;100.00;102693.50;5264573;28;20467;-66
2023/05/03 04:32:07;;;;;;;10.05;5.82;;;;;;;3.59;100.00;102688.31;5259730;28;20038;-67
2023/05/03 04:34:38;;;;;;;11.82;5.07;;;;;;;3.69;100.00;102697.78;5274370;28;20470;-67
2023/05/03 04:37:09;;;;;;;8.25;5.00;;;;;;;3.65;100.00;102703.16;5267400;28;20372;-67
2023/05/03 04:39:41;;;;;;;11.75;5.72;;;;;;;3.59;100.00;102708.56;5264182;28;20120;-67
2023/05/03 04:42:14;;;;;;;11.90;5.53;;;;;;;3.59;100.00;102713.84;5263849;28;20039;-67
2023/05/03 04:44:45;;;;;;;9.55;5.65;;;;;;;3.70;100.00;102718.03;5262125;28;21937;-67
2023/05/03 04:47:17;;;;;;;9.52;5.53;;;;;;;3.60;100.00;102724.34;5262260;28;20090;-67
2023/05/03 04:49:49;;;;;;;12.05;5.88;;;;;;;3.64;100.00;102735.72;5266762;28;20067;-68
2023/05/03 04:52:21;;;;;;;9.52;5.68;;;;;;;3.69;100.00;102734.75;5263697;28;20067;-67
2023/05/03 04:54:53;;;;;;;12.77;6.25;;;;;;;3.64;100.00;102743.66;5265311;28;20577;-66
2023/05/03 04:57:24;;;;;;;12.52;6.18;;;;;;;3.62;100.00;102751.59;5264166;28;20028;-67
2023/05/03 04:59:56;;;;;;;10.75;5.65;;;;;;;3.68;100.00;102750.63;5261894;28;20117;-67
2023/05/03 05:02:27;;;;;;;12.60;5.68;;;;;;;3.65;100.00;102755.97;5262732;28;20086;-66
2023/05/03 05:04:59;;;;;;;11.70;5.72;;;;;;;3.66;100.00;102761.22;5262779;28;20029;-66
2023/05/03 05:07:30;;;;;;;11.20;5.72;;;;;;;3.71;100.00;102767.28;5262069;28;20093;-67
2023/05/03 05:10:02;;;;;;;12.77;6.07;;;;;;;3.77;100.00;102768.94;5267168;28;20075;-67
2023/05/03 05:12:33;;;;;;;12.07;6.00;;;;;;;3.85;100.00;102763.53;5264175;28;20344;-67
2023/05/03 05:15:05;;;;;;;10.23;5.60;;;;;;;3.85;100.00;102755.59;5257729;28;20151;-67
2023/05/03 05:17:37;;;;;;;9.57;6.00;;;;;;;3.90;100.00;102756.41;5263991;28;20021;-66
2023/05/03 05:20:11;;;;;;;10.25;6.05;;;;;;;3.92;100.00;102759.88;5265115;28;20436;-66
2023/05/03 05:22:42;;;;;;;11.48;5.93;;;;;;;4.04;100.00;102758.78;5262986;28;20028;-67
2023/05/03 05:25:14;;;;;;;10.98;6.10;;;;;;;4.08;100.00;102752.56;5261212;28;20480;-67
2023/05/03 05:27:45;;;;;;;12.82;6.28;;;;;;;4.08;100.00;102757.84;5262262;28;20123;-67
2023/05/03 05:30:16;;;;;;;12.57;6.07;;;;;;;4.12;100.00;102746.31;5260108;28;20530;-67
2023/05/03 05:32:48;;;;;;;11.73;5.63;;;;;;;4.16;100.00;102755.94;5263026;28;20454;-67
2023/05/03 05:35:19;;;;;;;11.40;6.15;;;;;;;4.20;100.00;102754.09;5262362;28;20036;-67
2023/05/03 05:37:51;;;;;;;11.95;6.13;;;;;;;4.24;100.00;102746.09;5264529;28;20028;-67
2023/05/03 05:40:22;;;;;;;13.40;6.65;;;;;;;4.29;100.00;102749.50;5262505;28;20098;-67
2023/05/03 05:42:53;;;;;;;9.77;6.38;;;;;;;4.38;100.00;102755.53;5261634;28;20055;-67
2023/05/03 05:45:25;;;;;;;14.68;5.95;;;;;;;4.41;100.00;102751.06;5261984;28;20036;-67
2023/05/03 05:47:56;;;;;;;9.75;6.03;;;;;;;4.45;100.00;102757.13;5266723;28;20025;-67
2023/05/03 05:50:28;;;;;;;8.98;6.30;;;;;;;4.53;100.00;102757.00;5262003;28;20131;-67
2023/05/03 05:53:00;;;;;;;10.63;6.03;;;;;;;4.53;100.00;102751.72;5263213;28;20028;-67
2023/05/03 05:55:32;;;;;;;12.05;6.03;;;;;;;4.56;100.00;102757.78;5260273;28;20024;-67
2023/05/03 05:58:03;;;;;;;11.35;5.90;;;;;;;4.65;100.00;102764.66;5261314;28;20033;-67
2023/05/03 06:00:35;;;;;;;10.85;6.05;;;;;;;4.72;100.00;102769.78;5264584;28;20115;-66
2023/05/03 06:03:06;;;;;;;13.48;5.60;;;;;;;4.83;100.00;102766.94;5267369;28;20048;-66
2023/05/03 06:05:38;;;;;;;8.50;5.60;;;;;;;4.84;100.00;102766.00;5262837;28;20111;-66
2023/05/03 06:08:10;;;;;;;7.45;5.50;;;;;;;4.91;100.00;102764.97;5267352;28;20025;-67
2023/05/03 06:10:41;;;;;;;12.82;5.70;;;;;;;5.00;100.00;102763.03;5261998;28;20379;-67
2023/05/03 06:13:13;;;;;;;9.07;5.35;;;;;;;5.05;100.00;102763.81;5260708;28;20035;-67
2023/05/03 06:15:44;;;;;;;10.38;6.22;;;;;;;5.14;100.00;102760.97;5264119;28;20032;-67
2023/05/03 06:18:16;;;;;;;13.10;5.35;;;;;;;5.18;100.00;102754.69;5300554;28;20055;-67
2023/05/03 06:20:48;;;;;;;10.48;6.05;;;;;;;5.29;100.00;102749.13;5269672;28;20025;-67
2023/05/03 06:23:20;;;;;;;11.20;5.93;;;;;;;5.40;100.00;102752.38;5273237;28;20086;-67
2023/05/03 06:25:51;;;;;;;8.23;5.18;;;;;;;5.47;100.00;102748.69;5270507;28;20481;-67
2023/05/03 06:28:23;;;;;;;10.80;5.82;;;;;;;5.56;100.00;102744.97;5271003;28;20032;-67
2023/05/03 06:30:54;;;;;;;11.95;5.70;;;;;;;5.68;100.00;102759.66;5272262;28;20029;-67
2023/05/03 06:33:26;;;;;;;39.45;10.35;;;;;;;5.76;100.00;102751.53;5269284;28;20139;-67
2023/05/03 06:35:58;;;;;;;11.00;5.30;;;;;;;5.84;100.00;102754.84;5275992;28;20024;-67
2023/05/03 06:38:29;;;;;;;12.20;5.80;;;;;;;5.95;100.00;102739.56;5273928;28;20155;-67
2023/05/03 06:41:01;;;;;;;12.25;5.75;;;;;;;5.97;100.00;102743.03;5273383;28;20115;-67
2023/05/03 06:43:32;;;;;;;8.93;5.70;;;;;;;6.16;100.00;102750.50;5270071;28;20379;-67
2023/05/03 06:46:03;;;;;;;10.73;5.68;;;;;;;6.29;100.00;102741.31;5269081;28;20068;-67
2023/05/03 06:48:35;;;;;;;12.60;5.93;;;;;;;6.35;100.00;102726.97;5268409;28;20158;-67
2023/05/03 06:51:06;;;;;;;13.25;5.78;;;;;;;6.47;100.00;102732.81;5265476;28;20136;-67
2023/05/03 06:53:37;;;;;;;12.45;4.78;;;;;;;6.55;100.00;102726.44;5273038;28;20032;-67
2023/05/03 06:56:09;;;;;;;11.75;5.72;;;;;;;6.69;100.00;102726.88;5269001;28;20062;-67
2023/05/03 06:58:40;;;;;;;10.32;5.05;;;;;;;6.79;100.00;102724.84;5271941;28;20129;-67
2023/05/03 07:01:12;;;;;;;11.70;5.28;;;;;;;6.92;100.00;102717.34;5270951;28;20036;-67
2023/05/03 07:03:43;;;;;;;12.10;4.97;;;;;;;7.02;100.00;102727.63;5270739;28;20043;-67
2023/05/03 07:06:15;;;;;;;10.18;4.90;;;;;;;7.13;100.00;102729.94;5271484;28;20043;-67
2023/05/03 07:08:47;;;;;;;8.80;5.10;;;;;;;7.25;100.00;102723.41;5264647;28;20037;-67
2023/05/03 07:11:22;;;;;;;9.20;4.80;;;;;;;7.42;100.00;102733.44;5265359;28;20029;-67
2023/05/03 07:13:54;;;;;;;8.80;5.13;;;;;;;7.54;100.00;102738.38;5270173;28;20050;-67
2023/05/03 07:16:25;;;;;;;12.02;4.72;;;;;;;7.71;100.00;102731.59;5271953;28;20054;-67
2023/05/03 07:18:56;;;;;;;10.48;5.38;;;;;;;7.82;100.00;102729.44;5272882;28;20024;-67
2023/05/03 07:21:28;;;;;;;10.70;5.10;;;;;;;7.91;100.00;102731.78;5281429;28;20033;-67
2023/05/03 07:24:00;;;;;;;8.23;5.75;;;;;;;8.09;100.00;102721.41;5268362;28;20141;-67
2023/05/03 07:26:32;;;;;;;9.75;5.50;;;;;;;8.21;100.00;102732.50;5273588;28;20075;-68
2023/05/03 07:29:03;;;;;;;8.93;5.07;;;;;;;8.22;100.00;102728.88;5271112;28;21115;-67
2023/05/03 07:31:35;;;;;;;9.38;5.47;;;;;;;8.34;100.00;102737.34;5273521;28;20127;-67
2023/05/03 07:34:06;;;;;;;10.20;5.20;;;;;;;8.53;100.00;102729.59;5274388;28;20066;-67
2023/05/03 07:36:38;;;;;;;9.07;5.10;;;;;;;8.52;100.00;102714.56;5271578;28;20021;-67
2023/05/03 07:39:09;;;;;;;9.27;5.20;;;;;;;8.71;100.00;102717.41;5268314;28;20467;-67
2023/05/03 07:41:41;;;;;;;10.18;5.32;;;;;;;8.81;100.00;102714.31;5270856;28;20415;-67
2023/05/03 07:44:12;;;;;;;10.80;5.05;;;;;;;8.99;100.00;102709.19;5273660;28;20040;-67
2023/05/03 07:46:44;;;;;;;11.13;5.20;;;;;;;9.12;100.00;102706.91;5270883;28;20099;-67
2023/05/03 07:49:15;;;;;;;8.85;4.78;;;;;;;9.14;100.00;102719.22;5272539;28;20033;-67
2023/05/03 07:51:47;;;;;;;9.30;4.40;;;;;;;9.24;100.00;102703.72;5270938;28;20023;-67
2023/05/03 07:54:18;;;;;;;7.72;4.53;;;;;;;9.35;100.00;102704.16;5273292;28;20025;-67
2023/05/03 07:56:50;;;;;;;9.40;4.70;;;;;;;9.38;100.00;102693.38;5271666;28;20023;-67
2023/05/03 07:59:21;;;;;;;8.15;4.43;;;;;;;9.44;100.00;102694.91;5265052;28;20052;-66
2023/05/03 08:01:52;;;;;;;6.30;4.00;;;;;;;9.52;100.00;102682.13;5266876;28;20025;-67
2023/05/03 08:04:24;;;;;;;7.50;4.13;;;;;;;9.69;100.00;102691.22;5264805;28;20459;-67
2023/05/03 08:06:55;;;;;;;7.35;3.90;;;;;;;9.88;100.00;102673.47;5276284;28;20105;-67
2023/05/03 08:09:27;;;;;;;9.30;4.70;;;;;;;9.81;100.00;102674.69;5277669;28;20028;-67
2023/05/03 08:12:01;;;;;;;6.78;4.07;;;;;;;9.94;100.00;102673.22;5267879;28;20035;-67
2023/05/03 08:14:32;;;;;;;6.17;3.83;;;;;;;10.03;100.00;102669.28;5269393;28;20351;-67
2023/05/03 08:17:04;;;;;;;6.82;4.35;;;;;;;10.07;100.00;102661.97;5268913;28;20039;-67
2023/05/03 08:19:35;;;;;;;7.63;3.90;;;;;;;10.14;100.00;102659.00;5271171;28;20065;-67
2023/05/03 08:22:06;;;;;;;8.00;4.00;;;;;;;10.34;100.00;102666.09;5269010;28;20154;-67
2023/05/03 08:24:38;;;;;;;8.23;3.97;;;;;;;10.45;100.00;102665.59;5264298;28;20024;-67
2023/05/03 08:27:11;;;;;;;8.93;3.70;;;;;;;10.55;100.00;102672.22;5273466;28;20111;-66
2023/05/03 08:29:42;;;;;;;5.25;3.58;;;;;;;10.55;100.00;102660.69;5270824;28;20028;-67
2023/05/03 08:32:14;;;;;;;7.82;3.80;;;;;;;10.72;100.00;102660.75;5267325;28;20096;-67
2023/05/03 08:34:45;;;;;;;8.60;3.70;;;;;;;10.76;100.00;102653.47;5264082;28;20638;-67
2023/05/03 08:37:16;;;;;;;9.85;3.55;;;;;;;10.95;100.00;102656.13;5275045;28;20107;-67
2023/05/03 08:39:48;;;;;;;7.25;3.50;;;;;;;10.97;100.00;102655.09;5274905;28;20036;-67
2023/05/03 08:42:19;;;;;;;8.90;3.58;;;;;;;11.08;100.00;102651.88;5266631;28;20036;-67
2023/05/03 08:44:50;;;;;;;9.60;4.50;;;;;;;11.16;100.00;102652.38;5279228;28;20164;-67
2023/05/03 08:47:22;;;;;;;8.07;3.25;;;;;;;11.19;100.00;102646.00;5273749;28;20482;-67
2023/05/03 08:49:55;;;;;;;6.75;3.60;;;;;;;11.24;100.00;102653.78;5268349;28;20028;-67
2023/05/03 08:52:26;;;;;;;7.13;3.60;;;;;;;11.22;100.00;102656.53;5266011;28;20078;-67
2023/05/03 08:54:57;;;;;;;12.00;3.25;;;;;;;11.35;100.00;102663.00;5278014;28;20028;-67
2023/05/03 08:57:29;;;;;;;6.30;3.20;;;;;;;11.50;100.00;102672.03;5274492;28;20028;-67
2023/05/03 09:00:04;;;;;;;6.60;3.58;;;;;;;11.54;100.00;102670.06;5274112;28;20040;-67
2023/05/03 09:02:39;;;;;;;6.68;3.83;;;;;;;11.74;100.00;102675.25;5282087;28;20539;-66
2023/05/03 09:05:14;;;;;;;9.90;3.88;;;;;;;11.72;100.00;102666.44;5269671;28;20056;-67
2023/05/03 09:08:06;;;;;;;6.63;3.55;;;;;;;11.88;100.00;102669.19;5266325;28;20044;-67
2023/05/03 09:10:41;;;;;;;7.68;3.55;;;;;;;11.91;100.00;102665.53;5260285;28;20032;-66
2023/05/03 09:13:13;;;;;;;6.95;3.50;;;;;;;11.93;100.00;102663.63;5266010;28;20028;-66
2023/05/03 09:15:54;;;;;;;7.00;3.63;;;;;;;12.06;100.00;102664.72;5264483;28;20039;-67
2023/05/03 09:18:25;;;;;;;6.22;4.03;;;;;;;12.11;100.00;102672.47;5271234;28;20567;-68
2023/05/03 09:20:57;;;;;;;6.32;3.60;;;;;;;12.05;100.00;102665.63;5268699;28;20062;-67
2023/05/03 09:23:30;;;;;;;9.27;4.30;;;;;;;12.27;100.00;102664.47;5274333;28;20463;-68
2023/05/03 09:26:01;;;;;;;7.10;3.47;;;;;;;12.35;100.00;102665.81;5275173;28;20031;-67
2023/05/03 09:28:42;;;;;;;8.40;3.33;;;;;;;12.39;100.00;102670.97;5260603;28;20024;-67
2023/05/03 09:31:14;;;;;;;9.02;4.07;;;;;;;12.53;100.00;102673.75;5265854;28;20028;-68
2023/05/03 09:33:45;;;;;;;5.35;3.22;;;;;;;12.53;100.00;102666.59;5275145;28;20093;-68
2023/05/03 09:36:17;;;;;;;7.43;3.42;;;;;;;12.61;100.00;102658.13;5275624;28;20029;-68
2023/05/03 09:38:50;;;;;;;8.15;3.38;;;;;;;12.74;100.00;102658.31;5291323;28;20036;-68
2023/05/03 09:41:29;;;;;;;8.10;3.15;;;;;;;12.69;100.00;102658.53;5263665;28;20070;-68
2023/05/03 09:44:01;;;;;;;8.30;3.85;;;;;;;12.82;100.00;102657.88;5269455;28;20135;-69
2023/05/03 09:46:33;;;;;;;5.95;3.50;;;;;;;12.77;100.00;102660.81;5278046;28;20028;-68
2023/05/03 09:49:05;;;;;;;8.85;3.47;;;;;;;12.78;100.00;102659.00;5268394;28;20494;-68
2023/05/03 09:51:40;;;;;;;6.70;3.55;;;;;;;12.85;100.00;102650.53;5282279;28;20031;-67
2023/05/03 09:54:14;;;;;;;5.88;3.17;;;;;;;12.98;100.00;102647.97;5285656;28;20062;-69
2023/05/03 09:56:46;;;;;;;7.75;3.65;;;;;;;13.02;100.00;102641.53;5269370;28;20047;-69
2023/05/03 09:59:17;;;;;;;8.75;3.90;;;;;;;13.09;100.00;102636.66;5278049;28;20024;-71
2023/05/03 10:01:54;;;;;;;7.28;4.00;;;;;;;13.08;100.00;102649.19;5278038;28;20389;-68
2023/05/03 10:04:27;;;;;;;6.93;3.47;;;;;;;13.06;99.87;102648.41;5271956;28;20057;-68
2023/05/03 10:07:03;;;;;;;5.30;3.67;;;;;;;12.99;99.80;102639.00;5277294;28;20020;-68
2023/05/03 10:09:41;;;;;;;7.55;3.85;;;;;;;13.12;99.38;102636.47;5265137;28;20832;-68
2023/05/03 10:12:16;;;;;;;6.28;3.50;;;;;;;13.20;98.85;102628.84;5280343;28;20050;-68
2023/05/03 10:14:51;;;;;;;7.38;3.85;;;;;;;13.23;97.55;102635.81;5263727;28;20032;-68
2023/05/03 10:17:32;;;;;;;9.23;3.75;;;;;;;13.23;97.90;102626.00;5263568;28;20028;-68
2023/05/03 10:20:21;;;;;;;6.75;3.75;;;;;;;13.39;98.46;102635.84;5284213;28;20029;-69
2023/05/03 10:23:05;;;;;;;6.28;3.75;;;;;;;13.34;96.76;102641.44;5265801;28;20576;-68
2023/05/03 10:25:39;;;;;;;10.35;3.78;;;;;;;13.50;97.00;102638.72;5297661;27;21865;-68
2023/05/03 10:28:10;;;;;;;6.43;3.83;;;;;;;13.51;93.33;102635.94;5268167;28;20032;-67
2023/05/03 10:30:42;;;;;;;7.05;3.90;;;;;;;13.49;93.06;102645.91;5260803;28;20032;-68
2023/05/03 10:33:13;;;;;;;5.78;3.78;;;;;;;13.57;93.88;102637.41;5262830;28;20031;-68
2023/05/03 10:35:52;;;;;;;5.95;3.30;;;;;;;13.70;97.20;102635.69;5262745;28;20048;-68
2023/05/03 10:38:26;;;;;;;6.03;3.88;;;;;;;13.74;91.90;102633.69;5264792;28;20130;-68
2023/05/03 10:41:00;;;;;;;7.50;3.60;;;;;;;13.71;93.11;102632.06;5267899;28;20094;-68
2023/05/03 10:43:34;;;;;;;8.45;3.80;;;;;;;13.72;94.80;102631.09;5272713;28;20678;-68
2023/05/03 10:46:27;;;;;;;7.63;3.67;;;;;;;13.76;91.89;102630.91;5264648;28;20033;-68
2023/05/03 10:49:16;;;;;;;7.53;3.85;;;;;;;13.82;93.50;102627.84;5261677;28;20032;-69
2023/05/03 10:51:48;;;;;;;7.55;4.15;;;;;;;13.93;93.50;102634.28;5267022;28;20111;-68
2023/05/03 10:54:20;;;;;;;6.78;3.53;;;;;;;13.84;90.21;102636.66;5271702;28;20067;-68
2023/05/03 10:56:54;;;;;;;8.48;4.13;;;;;;;13.85;91.18;102639.25;5273727;28;20020;-68
2023/05/03 10:59:46;;;;;;;8.25;4.22;;;;;;;13.83;93.44;102633.13;5261439;28;20083;-69
2023/05/03 11:02:26;;;;;;;6.07;3.78;;;;;;;13.76;91.63;102634.44;5271796;28;20036;-68
2023/05/03 11:05:02;;;;;;;6.60;4.07;;;;;;;13.86;90.11;102629.38;5269857;28;20028;-68
2023/05/03 11:07:34;;;;;;;7.68;3.80;;;;;;;13.89;93.28;102629.19;5275925;28;20033;-68
2023/05/03 11:10:19;;;;;;;5.82;3.85;;;;;;;13.90;95.39;102621.06;5269460;28;20032;-68
2023/05/03 11:12:50;;;;;;;6.43;4.15;;;;;;;14.05;91.13;102626.41;5274248;28;20035;-68
2023/05/03 11:15:21;;;;;;;7.57;4.28;;;;;;;14.15;92.54;102606.06;5264886;28;20486;-68
2023/05/03 11:17:53;;;;;;;8.95;4.00;;;;;;;14.11;90.78;102609.91;5259645;28;20028;-69
2023/05/03 11:20:24;;;;;;;10.35;4.70;;;;;;;14.12;91.35;102614.34;5270549;28;20028;-68
2023/05/03 11:22:56;;;;;;;8.65;4.28;;;;;;;14.14;88.72;102614.25;5271597;28;20134;-68
2023/05/03 11:25:28;;;;;;;8.05;4.13;;;;;;;13.90;89.57;102601.41;5270791;28;20497;-69
2023/05/03 11:28:00;;;;;;;6.50;4.28;;;;;;;14.05;91.45;102607.63;5271287;28;20120;-68
2023/05/03 11:30:33;;;;;;;7.90;4.38;;;;;;;14.00;89.17;102593.63;5268211;28;20029;-68
2023/05/03 11:33:05;;;;;;;6.55;4.18;;;;;;;14.14;88.67;102595.47;5265855;28;20063;-68
2023/05/03 11:35:37;;;;;;;6.53;4.07;;;;;;;14.12;89.32;102598.22;5268646;28;20104;-68
2023/05/03 11:38:09;;;;;;;7.43;4.03;;;;;;;14.12;91.27;102591.03;5271925;28;20072;-68
2023/05/03 11:40:40;;;;;;;7.13;3.95;;;;;;;14.18;92.06;102581.72;5264554;28;20060;-68
2023/05/03 11:43:12;;;;;;;7.00;4.03;;;;;;;14.29;89.24;102584.59;5266023;28;20439;-68
2023/05/03 11:45:45;;;;;;;7.07;4.20;;;;;;;14.31;91.95;102588.03;5272080;28;20027;-68
2023/05/03 11:48:16;;;;;;;6.97;4.40;;;;;;;14.30;92.27;102578.28;5286586;28;20035;-68